sensor_id;sensor_type;location;lat;lon;timestamp;temperature;humidity
1948;DHT22;974;52.400;9.818;2023-06-22T00:01:48;19.50;99.90
1948;DHT22;974;52.400;9.818;2023-06-22T00:04:13;19.50;99.90
1948;DHT22;974;52.400;9.818;2023-06-22T00:06:39;19.50;99.90
1948;DHT22;974;52.400;9.818;2023-06-22T00:09:04;19.40;99.90
1948;DHT22;974;52.400;9.818;2023-06-22T00:11:33;19.40;99.90
1948;DHT22;974;52.400;9.818;2023-06-22T00:13:59;19.40;99.90
1948;DHT22;974;52.400;9.818;2023-06-22T00:16:24;19.30;99.90
1948;DHT22;974;52.400;9.818;2023-06-22T00:18:50;19.30;99.90
1948;DHT22;974;52.400;9.818;2023-06-22T00:21:15;19.30;99.90
1948;DHT22;974;52.400;9.818;2023-06-22T00:23:41;19.30;99.90
1948;DHT22;974;52.400;9.818;2023-06-22T00:26:07;19.30;99.90
1948;DHT22;974;52.400;9.818;2023-06-22T00:28:33;19.30;99.90
1948;DHT22;974;52.400;9.818;2023-06-22T00:30:59;19.30;99.90
1948;DHT22;974;52.400;9.818;2023-06-22T00:33:26;19.20;99.90
1948;DHT22;974;52.400;9.818;2023-06-22T00:35:51;19.20;99.90
1948;DHT22;974;52.400;9.818;2023-06-22T00:38:18;19.10;99.90
1948;DHT22;974;52.400;9.818;2023-06-22T00:40:44;19.10;99.90
1948;DHT22;974;52.400;9.818;2023-06-22T00:43:10;19.10;99.90
1948;DHT22;974;52.400;9.818;2023-06-22T00:45:35;19.00;99.90
1948;DHT22;974;52.400;9.818;2023-06-22T00:48:02;19.00;99.90
1948;DHT22;974;52.400;9.818;2023-06-22T00:50:30;18.90;99.90
1948;DHT22;974;52.400;9.818;2023-06-22T00:53:00;18.90;99.90
1948;DHT22;974;52.400;9.818;2023-06-22T00:55:28;18.90;99.90
1948;DHT22;974;52.400;9.818;2023-06-22T00:57:53;18.90;99.90
1948;DHT22;974;52.400;9.818;2023-06-22T01:00:22;18.80;99.90
1948;DHT22;974;52.400;9.818;2023-06-22T01:02:50;18.80;99.90
1948;DHT22;974;52.400;9.818;2023-06-22T01:05:18;18.80;99.90
1948;DHT22;974;52.400;9.818;2023-06-22T01:08:04;18.80;99.90
1948;DHT22;974;52.400;9.818;2023-06-22T01:10:41;18.80;99.90
1948;DHT22;974;52.400;9.818;2023-06-22T01:15:44;18.70;99.90
1948;DHT22;974;52.400;9.818;2023-06-22T01:18:13;18.60;99.90
1948;DHT22;974;52.400;9.818;2023-06-22T01:20:39;18.70;99.90
1948;DHT22;974;52.400;9.818;2023-06-22T01:25:50;18.60;99.90
1948;DHT22;974;52.400;9.818;2023-06-22T01:28:39;18.60;99.90
1948;DHT22;974;52.400;9.818;2023-06-22T01:31:08;18.60;99.90
1948;DHT22;974;52.400;9.818;2023-06-22T01:33:36;18.60;99.90
1948;DHT22;974;52.400;9.818;2023-06-22T01:36:03;18.50;99.90
1948;DHT22;974;52.400;9.818;2023-06-22T01:38:30;18.60;99.90
1948;DHT22;974;52.400;9.818;2023-06-22T01:40:57;18.50;99.90
1948;DHT22;974;52.400;9.818;2023-06-22T01:43:25;18.40;99.90
1948;DHT22;974;52.400;9.818;2023-06-22T01:45:51;18.40;99.90
1948;DHT22;974;52.400;9.818;2023-06-22T01:48:18;18.40;99.90
1948;DHT22;974;52.400;9.818;2023-06-22T01:50:44;18.40;99.90
1948;DHT22;974;52.400;9.818;2023-06-22T01:53:10;18.50;99.90
1948;DHT22;974;52.400;9.818;2023-06-22T01:55:36;18.50;99.90
1948;DHT22;974;52.400;9.818;2023-06-22T01:58:01;18.40;99.90
1948;DHT22;974;52.400;9.818;2023-06-22T02:00:28;18.40;99.90
1948;DHT22;974;52.400;9.818;2023-06-22T02:03:01;18.40;99.90
1948;DHT22;974;52.400;9.818;2023-06-22T02:05:35;18.40;99.90
1948;DHT22;974;52.400;9.818;2023-06-22T02:08:11;18.30;99.90
1948;DHT22;974;52.400;9.818;2023-06-22T02:10:41;18.40;99.90
1948;DHT22;974;52.400;9.818;2023-06-22T02:13:09;18.40;99.90
1948;DHT22;974;52.400;9.818;2023-06-22T02:15:35;18.30;99.90
1948;DHT22;974;52.400;9.818;2023-06-22T02:18:01;18.30;99.90
1948;DHT22;974;52.400;9.818;2023-06-22T02:20:26;18.40;99.90
1948;DHT22;974;52.400;9.818;2023-06-22T02:22:52;18.30;99.90
1948;DHT22;974;52.400;9.818;2023-06-22T02:25:17;18.30;99.90
1948;DHT22;974;52.400;9.818;2023-06-22T02:27:44;18.30;99.90
1948;DHT22;974;52.400;9.818;2023-06-22T02:30:10;18.30;99.90
1948;DHT22;974;52.400;9.818;2023-06-22T02:32:36;18.30;99.90
1948;DHT22;974;52.400;9.818;2023-06-22T02:35:01;18.30;99.90
1948;DHT22;974;52.400;9.818;2023-06-22T02:37:31;18.30;99.90
1948;DHT22;974;52.400;9.818;2023-06-22T02:39:56;18.20;99.90
1948;DHT22;974;52.400;9.818;2023-06-22T02:42:22;18.20;99.90
1948;DHT22;974;52.400;9.818;2023-06-22T02:44:47;18.20;99.90
1948;DHT22;974;52.400;9.818;2023-06-22T02:47:13;18.20;99.90
1948;DHT22;974;52.400;9.818;2023-06-22T02:49:38;18.20;99.90
1948;DHT22;974;52.400;9.818;2023-06-22T02:52:04;18.20;99.90
1948;DHT22;974;52.400;9.818;2023-06-22T02:54:30;18.10;99.90
1948;DHT22;974;52.400;9.818;2023-06-22T02:56:55;18.20;99.90
1948;DHT22;974;52.400;9.818;2023-06-22T02:59:21;18.20;99.90
1948;DHT22;974;52.400;9.818;2023-06-22T03:01:50;18.10;99.90
1948;DHT22;974;52.400;9.818;2023-06-22T03:04:15;18.10;99.90
1948;DHT22;974;52.400;9.818;2023-06-22T03:06:41;18.10;99.90
1948;DHT22;974;52.400;9.818;2023-06-22T03:09:07;18.10;99.90
1948;DHT22;974;52.400;9.818;2023-06-22T03:11:33;18.10;99.90
1948;DHT22;974;52.400;9.818;2023-06-22T03:13:59;18.10;99.90
1948;DHT22;974;52.400;9.818;2023-06-22T03:16:25;18.10;99.90
1948;DHT22;974;52.400;9.818;2023-06-22T03:18:51;18.00;99.90
1948;DHT22;974;52.400;9.818;2023-06-22T03:21:16;18.00;99.90
1948;DHT22;974;52.400;9.818;2023-06-22T03:23:42;18.00;99.90
1948;DHT22;974;52.400;9.818;2023-06-22T03:26:09;18.00;99.90
1948;DHT22;974;52.400;9.818;2023-06-22T03:28:35;18.00;99.90
1948;DHT22;974;52.400;9.818;2023-06-22T03:31:00;18.00;99.90
1948;DHT22;974;52.400;9.818;2023-06-22T03:33:26;18.00;99.90
1948;DHT22;974;52.400;9.818;2023-06-22T03:35:51;18.00;99.90
1948;DHT22;974;52.400;9.818;2023-06-22T03:38:17;18.10;99.90
1948;DHT22;974;52.400;9.818;2023-06-22T03:40:43;18.10;99.90
1948;DHT22;974;52.400;9.818;2023-06-22T03:43:08;18.10;99.90
1948;DHT22;974;52.400;9.818;2023-06-22T03:45:34;18.20;99.90
1948;DHT22;974;52.400;9.818;2023-06-22T03:48:00;18.20;99.90
1948;DHT22;974;52.400;9.818;2023-06-22T03:50:26;18.20;99.90
1948;DHT22;974;52.400;9.818;2023-06-22T03:52:51;18.20;99.90
1948;DHT22;974;52.400;9.818;2023-06-22T03:55:19;18.20;99.90
1948;DHT22;974;52.400;9.818;2023-06-22T03:57:44;18.20;99.90
1948;DHT22;974;52.400;9.818;2023-06-22T04:00:10;18.20;99.90
1948;DHT22;974;52.400;9.818;2023-06-22T04:02:36;18.20;99.90
1948;DHT22;974;52.400;9.818;2023-06-22T04:05:01;18.30;99.90
1948;DHT22;974;52.400;9.818;2023-06-22T04:07:27;18.30;99.90
1948;DHT22;974;52.400;9.818;2023-06-22T04:09:52;18.30;99.90
1948;DHT22;974;52.400;9.818;2023-06-22T04:12:18;18.20;99.90
1948;DHT22;974;52.400;9.818;2023-06-22T04:14:44;18.20;99.90
1948;DHT22;974;52.400;9.818;2023-06-22T04:17:09;18.20;99.90
1948;DHT22;974;52.400;9.818;2023-06-22T04:19:35;18.30;99.90
1948;DHT22;974;52.400;9.818;2023-06-22T04:22:00;18.20;99.90
1948;DHT22;974;52.400;9.818;2023-06-22T04:24:26;18.30;99.90
1948;DHT22;974;52.400;9.818;2023-06-22T04:26:51;18.30;99.90
1948;DHT22;974;52.400;9.818;2023-06-22T04:29:19;18.30;99.90
1948;DHT22;974;52.400;9.818;2023-06-22T04:31:45;18.40;99.90
1948;DHT22;974;52.400;9.818;2023-06-22T04:34:16;18.40;99.90
1948;DHT22;974;52.400;9.818;2023-06-22T04:36:42;18.40;99.90
1948;DHT22;974;52.400;9.818;2023-06-22T04:39:09;18.50;99.90
1948;DHT22;974;52.400;9.818;2023-06-22T04:41:39;18.50;99.90
1948;DHT22;974;52.400;9.818;2023-06-22T04:44:17;18.60;99.90
1948;DHT22;974;52.400;9.818;2023-06-22T04:46:53;18.60;99.90
1948;DHT22;974;52.400;9.818;2023-06-22T04:49:20;18.70;99.90
1948;DHT22;974;52.400;9.818;2023-06-22T04:51:46;18.80;99.90
1948;DHT22;974;52.400;9.818;2023-06-22T04:54:12;18.80;99.90
1948;DHT22;974;52.400;9.818;2023-06-22T04:56:37;18.90;99.90
1948;DHT22;974;52.400;9.818;2023-06-22T04:59:06;18.90;99.90
1948;DHT22;974;52.400;9.818;2023-06-22T05:01:31;18.90;99.90
1948;DHT22;974;52.400;9.818;2023-06-22T05:03:57;18.90;99.90
1948;DHT22;974;52.400;9.818;2023-06-22T05:06:23;19.00;99.90
1948;DHT22;974;52.400;9.818;2023-06-22T05:08:56;18.90;99.90
1948;DHT22;974;52.400;9.818;2023-06-22T05:11:24;19.00;99.90
1948;DHT22;974;52.400;9.818;2023-06-22T05:13:49;19.10;99.90
1948;DHT22;974;52.400;9.818;2023-06-22T05:16:15;19.10;99.90
1948;DHT22;974;52.400;9.818;2023-06-22T05:18:40;19.20;99.90
1948;DHT22;974;52.400;9.818;2023-06-22T05:21:07;19.30;99.90
1948;DHT22;974;52.400;9.818;2023-06-22T05:23:32;19.30;99.90
1948;DHT22;974;52.400;9.818;2023-06-22T05:25:58;19.40;99.90
1948;DHT22;974;52.400;9.818;2023-06-22T05:28:23;19.40;99.90
1948;DHT22;974;52.400;9.818;2023-06-22T05:30:49;19.50;99.90
1948;DHT22;974;52.400;9.818;2023-06-22T05:33:15;19.60;99.90
1948;DHT22;974;52.400;9.818;2023-06-22T05:35:40;19.70;99.90
1948;DHT22;974;52.400;9.818;2023-06-22T05:38:06;19.80;99.90
1948;DHT22;974;52.400;9.818;2023-06-22T05:40:32;19.90;99.90
1948;DHT22;974;52.400;9.818;2023-06-22T05:42:57;19.90;99.90
1948;DHT22;974;52.400;9.818;2023-06-22T05:45:23;20.00;99.90
1948;DHT22;974;52.400;9.818;2023-06-22T05:47:48;20.10;99.90
1948;DHT22;974;52.400;9.818;2023-06-22T05:50:14;20.10;99.90
1948;DHT22;974;52.400;9.818;2023-06-22T05:52:39;20.10;99.90
1948;DHT22;974;52.400;9.818;2023-06-22T05:55:05;20.20;99.90
1948;DHT22;974;52.400;9.818;2023-06-22T05:57:31;20.20;99.90
1948;DHT22;974;52.400;9.818;2023-06-22T05:59:56;20.20;99.90
1948;DHT22;974;52.400;9.818;2023-06-22T06:02:21;20.20;99.90
1948;DHT22;974;52.400;9.818;2023-06-22T06:04:47;20.30;99.90
1948;DHT22;974;52.400;9.818;2023-06-22T06:07:12;20.30;99.90
1948;DHT22;974;52.400;9.818;2023-06-22T06:09:38;20.30;99.90
1948;DHT22;974;52.400;9.818;2023-06-22T06:12:04;20.30;99.90
1948;DHT22;974;52.400;9.818;2023-06-22T06:14:29;20.30;99.90
1948;DHT22;974;52.400;9.818;2023-06-22T06:16:55;20.40;99.90
1948;DHT22;974;52.400;9.818;2023-06-22T06:19:20;20.40;99.90
1948;DHT22;974;52.400;9.818;2023-06-22T06:21:46;20.50;99.90
1948;DHT22;974;52.400;9.818;2023-06-22T06:24:11;20.50;99.90
1948;DHT22;974;52.400;9.818;2023-06-22T06:26:37;20.50;99.90
1948;DHT22;974;52.400;9.818;2023-06-22T06:29:02;20.60;99.90
1948;DHT22;974;52.400;9.818;2023-06-22T06:31:28;20.70;99.90
1948;DHT22;974;52.400;9.818;2023-06-22T06:33:54;20.70;99.90
1948;DHT22;974;52.400;9.818;2023-06-22T06:36:20;20.80;99.90
1948;DHT22;974;52.400;9.818;2023-06-22T06:38:46;20.90;99.90
1948;DHT22;974;52.400;9.818;2023-06-22T06:41:14;20.90;99.90
1948;DHT22;974;52.400;9.818;2023-06-22T06:43:40;20.90;99.90
1948;DHT22;974;52.400;9.818;2023-06-22T06:46:05;21.00;99.90
1948;DHT22;974;52.400;9.818;2023-06-22T06:48:31;21.00;99.90
1948;DHT22;974;52.400;9.818;2023-06-22T06:50:56;21.00;99.90
1948;DHT22;974;52.400;9.818;2023-06-22T06:53:22;21.10;99.90
1948;DHT22;974;52.400;9.818;2023-06-22T06:55:47;21.10;99.90
1948;DHT22;974;52.400;9.818;2023-06-22T06:58:13;21.20;99.90
1948;DHT22;974;52.400;9.818;2023-06-22T07:00:39;21.20;99.90
1948;DHT22;974;52.400;9.818;2023-06-22T07:03:05;21.30;99.90
1948;DHT22;974;52.400;9.818;2023-06-22T07:05:30;21.30;99.90
1948;DHT22;974;52.400;9.818;2023-06-22T07:07:56;21.40;99.90
1948;DHT22;974;52.400;9.818;2023-06-22T07:10:21;21.50;99.90
1948;DHT22;974;52.400;9.818;2023-06-22T07:12:47;21.50;99.90
1948;DHT22;974;52.400;9.818;2023-06-22T07:15:13;21.60;99.90
1948;DHT22;974;52.400;9.818;2023-06-22T07:17:39;21.70;99.90
1948;DHT22;974;52.400;9.818;2023-06-22T07:20:08;21.70;99.90
1948;DHT22;974;52.400;9.818;2023-06-22T07:22:36;21.80;99.90
1948;DHT22;974;52.400;9.818;2023-06-22T07:25:02;21.90;99.90
1948;DHT22;974;52.400;9.818;2023-06-22T07:27:43;21.90;99.90
1948;DHT22;974;52.400;9.818;2023-06-22T07:30:10;22.00;99.90
1948;DHT22;974;52.400;9.818;2023-06-22T07:32:36;22.10;99.90
1948;DHT22;974;52.400;9.818;2023-06-22T07:35:02;22.30;99.90
1948;DHT22;974;52.400;9.818;2023-06-22T07:37:28;22.40;99.90
1948;DHT22;974;52.400;9.818;2023-06-22T07:39:54;22.40;99.90
1948;DHT22;974;52.400;9.818;2023-06-22T07:42:27;22.50;99.90
1948;DHT22;974;52.400;9.818;2023-06-22T07:44:53;22.60;99.90
1948;DHT22;974;52.400;9.818;2023-06-22T07:47:20;22.80;99.90
1948;DHT22;974;52.400;9.818;2023-06-22T07:49:48;22.90;99.90
1948;DHT22;974;52.400;9.818;2023-06-22T07:52:14;22.90;99.90
1948;DHT22;974;52.400;9.818;2023-06-22T07:54:39;22.90;99.90
1948;DHT22;974;52.400;9.818;2023-06-22T07:57:05;23.10;99.90
1948;DHT22;974;52.400;9.818;2023-06-22T07:59:30;23.30;99.90
1948;DHT22;974;52.400;9.818;2023-06-22T08:01:56;23.40;99.90
1948;DHT22;974;52.400;9.818;2023-06-22T08:04:21;23.50;99.90
1948;DHT22;974;52.400;9.818;2023-06-22T08:06:47;23.60;99.90
1948;DHT22;974;52.400;9.818;2023-06-22T08:09:12;23.60;99.90
1948;DHT22;974;52.400;9.818;2023-06-22T08:11:38;23.60;99.90
1948;DHT22;974;52.400;9.818;2023-06-22T08:14:03;23.60;99.90
1948;DHT22;974;52.400;9.818;2023-06-22T08:16:29;23.60;99.90
1948;DHT22;974;52.400;9.818;2023-06-22T08:18:54;23.60;99.90
1948;DHT22;974;52.400;9.818;2023-06-22T08:21:20;23.60;99.90
1948;DHT22;974;52.400;9.818;2023-06-22T08:23:45;23.70;99.90
1948;DHT22;974;52.400;9.818;2023-06-22T08:26:11;23.60;99.90
1948;DHT22;974;52.400;9.818;2023-06-22T08:28:36;23.70;99.90
1948;DHT22;974;52.400;9.818;2023-06-22T08:31:02;23.70;99.90
1948;DHT22;974;52.400;9.818;2023-06-22T08:33:28;23.70;99.90
1948;DHT22;974;52.400;9.818;2023-06-22T08:35:56;23.70;99.90
1948;DHT22;974;52.400;9.818;2023-06-22T08:38:21;23.70;99.90
1948;DHT22;974;52.400;9.818;2023-06-22T08:40:47;23.70;99.90
1948;DHT22;974;52.400;9.818;2023-06-22T08:43:12;23.70;99.90
1948;DHT22;974;52.400;9.818;2023-06-22T08:45:38;23.70;99.90
1948;DHT22;974;52.400;9.818;2023-06-22T08:48:03;23.80;99.90
1948;DHT22;974;52.400;9.818;2023-06-22T08:50:29;23.80;99.90
1948;DHT22;974;52.400;9.818;2023-06-22T08:52:54;23.80;99.90
1948;DHT22;974;52.400;9.818;2023-06-22T08:55:20;23.80;99.90
1948;DHT22;974;52.400;9.818;2023-06-22T08:57:45;23.80;99.90
1948;DHT22;974;52.400;9.818;2023-06-22T09:00:11;23.90;99.90
1948;DHT22;974;52.400;9.818;2023-06-22T09:02:45;24.00;99.90
1948;DHT22;974;52.400;9.818;2023-06-22T09:05:11;23.90;99.90
1948;DHT22;974;52.400;9.818;2023-06-22T09:07:37;24.00;99.90
1948;DHT22;974;52.400;9.818;2023-06-22T09:10:02;24.10;99.90
1948;DHT22;974;52.400;9.818;2023-06-22T09:12:30;24.10;99.90
1948;DHT22;974;52.400;9.818;2023-06-22T09:14:56;24.20;99.90
1948;DHT22;974;52.400;9.818;2023-06-22T09:17:22;24.30;99.90
1948;DHT22;974;52.400;9.818;2023-06-22T09:19:47;24.30;99.90
1948;DHT22;974;52.400;9.818;2023-06-22T09:22:14;24.40;99.90
1948;DHT22;974;52.400;9.818;2023-06-22T09:24:39;24.50;99.90
1948;DHT22;974;52.400;9.818;2023-06-22T09:27:05;24.70;99.90
1948;DHT22;974;52.400;9.818;2023-06-22T09:29:31;24.80;99.90
1948;DHT22;974;52.400;9.818;2023-06-22T09:31:59;24.90;99.90
1948;DHT22;974;52.400;9.818;2023-06-22T09:34:25;24.90;99.90
1948;DHT22;974;52.400;9.818;2023-06-22T09:36:50;25.00;99.90
1948;DHT22;974;52.400;9.818;2023-06-22T09:39:17;25.00;99.90
1948;DHT22;974;52.400;9.818;2023-06-22T09:41:43;25.10;99.90
1948;DHT22;974;52.400;9.818;2023-06-22T09:44:08;25.10;99.90
1948;DHT22;974;52.400;9.818;2023-06-22T09:46:34;25.00;99.90
1948;DHT22;974;52.400;9.818;2023-06-22T09:48:59;25.00;99.90
1948;DHT22;974;52.400;9.818;2023-06-22T09:51:25;25.00;99.90
1948;DHT22;974;52.400;9.818;2023-06-22T09:53:51;25.00;99.90
1948;DHT22;974;52.400;9.818;2023-06-22T09:56:17;25.00;99.90
1948;DHT22;974;52.400;9.818;2023-06-22T09:58:43;25.10;99.90
1948;DHT22;974;52.400;9.818;2023-06-22T10:01:10;25.20;99.90
1948;DHT22;974;52.400;9.818;2023-06-22T10:03:36;25.20;99.90
1948;DHT22;974;52.400;9.818;2023-06-22T10:06:02;25.40;99.90
1948;DHT22;974;52.400;9.818;2023-06-22T10:08:27;25.50;99.90
1948;DHT22;974;52.400;9.818;2023-06-22T10:10:53;25.50;99.90
1948;DHT22;974;52.400;9.818;2023-06-22T10:13:18;25.50;99.90
1948;DHT22;974;52.400;9.818;2023-06-22T10:15:44;25.40;99.90
1948;DHT22;974;52.400;9.818;2023-06-22T10:18:15;25.40;99.90
1948;DHT22;974;52.400;9.818;2023-06-22T10:20:41;25.40;99.90
1948;DHT22;974;52.400;9.818;2023-06-22T10:23:07;25.40;99.90
1948;DHT22;974;52.400;9.818;2023-06-22T10:25:32;25.30;99.90
1948;DHT22;974;52.400;9.818;2023-06-22T10:27:57;25.30;99.90
1948;DHT22;974;52.400;9.818;2023-06-22T10:30:23;25.30;99.90
1948;DHT22;974;52.400;9.818;2023-06-22T10:32:49;25.20;99.90
1948;DHT22;974;52.400;9.818;2023-06-22T10:35:15;25.30;99.90
1948;DHT22;974;52.400;9.818;2023-06-22T10:37:43;25.40;99.90
1948;DHT22;974;52.400;9.818;2023-06-22T10:40:09;25.50;99.90
1948;DHT22;974;52.400;9.818;2023-06-22T10:42:34;25.50;99.90
1948;DHT22;974;52.400;9.818;2023-06-22T10:45:00;25.60;99.90
1948;DHT22;974;52.400;9.818;2023-06-22T10:47:25;25.60;99.90
1948;DHT22;974;52.400;9.818;2023-06-22T10:49:51;25.70;99.90
1948;DHT22;974;52.400;9.818;2023-06-22T10:52:16;25.80;99.90
1948;DHT22;974;52.400;9.818;2023-06-22T10:54:42;25.80;99.90
1948;DHT22;974;52.400;9.818;2023-06-22T10:57:07;25.90;99.90
1948;DHT22;974;52.400;9.818;2023-06-22T10:59:33;25.80;99.90
1948;DHT22;974;52.400;9.818;2023-06-22T11:01:58;25.80;99.90
1948;DHT22;974;52.400;9.818;2023-06-22T11:04:24;25.80;99.90
1948;DHT22;974;52.400;9.818;2023-06-22T11:06:51;25.80;99.90
1948;DHT22;974;52.400;9.818;2023-06-22T11:09:17;25.80;99.90
1948;DHT22;974;52.400;9.818;2023-06-22T11:11:46;25.80;99.90
1948;DHT22;974;52.400;9.818;2023-06-22T11:14:12;25.80;99.90
1948;DHT22;974;52.400;9.818;2023-06-22T11:16:37;25.90;99.90
1948;DHT22;974;52.400;9.818;2023-06-22T11:19:04;25.90;99.90
1948;DHT22;974;52.400;9.818;2023-06-22T11:21:30;26.00;99.90
1948;DHT22;974;52.400;9.818;2023-06-22T11:23:57;26.00;99.90
1948;DHT22;974;52.400;9.818;2023-06-22T11:26:22;26.00;99.90
1948;DHT22;974;52.400;9.818;2023-06-22T11:28:48;26.00;99.90
1948;DHT22;974;52.400;9.818;2023-06-22T11:31:14;26.00;99.90
1948;DHT22;974;52.400;9.818;2023-06-22T11:33:39;26.00;99.90
1948;DHT22;974;52.400;9.818;2023-06-22T11:36:05;26.00;99.90
1948;DHT22;974;52.400;9.818;2023-06-22T11:38:31;26.00;99.90
1948;DHT22;974;52.400;9.818;2023-06-22T11:40:58;25.90;99.90
1948;DHT22;974;52.400;9.818;2023-06-22T11:43:24;26.00;99.90
1948;DHT22;974;52.400;9.818;2023-06-22T11:45:49;26.00;99.90
1948;DHT22;974;52.400;9.818;2023-06-22T11:48:15;26.10;99.90
1948;DHT22;974;52.400;9.818;2023-06-22T11:50:41;26.30;99.90
1948;DHT22;974;52.400;9.818;2023-06-22T11:53:06;26.40;99.90
1948;DHT22;974;52.400;9.818;2023-06-22T11:55:32;26.60;99.90
1948;DHT22;974;52.400;9.818;2023-06-22T11:57:57;26.90;99.90
1948;DHT22;974;52.400;9.818;2023-06-22T12:00:29;27.50;99.90
1948;DHT22;974;52.400;9.818;2023-06-22T12:02:55;27.80;99.90
1948;DHT22;974;52.400;9.818;2023-06-22T12:05:21;28.30;99.90
1948;DHT22;974;52.400;9.818;2023-06-22T12:07:48;28.70;99.90
1948;DHT22;974;52.400;9.818;2023-06-22T12:10:14;29.20;99.90
1948;DHT22;974;52.400;9.818;2023-06-22T12:12:39;29.60;99.90
1948;DHT22;974;52.400;9.818;2023-06-22T12:15:05;29.70;99.90
1948;DHT22;974;52.400;9.818;2023-06-22T12:17:31;29.90;99.90
1948;DHT22;974;52.400;9.818;2023-06-22T12:19:57;29.80;99.90
1948;DHT22;974;52.400;9.818;2023-06-22T12:22:22;29.50;99.90
1948;DHT22;974;52.400;9.818;2023-06-22T12:24:48;29.30;99.90
1948;DHT22;974;52.400;9.818;2023-06-22T12:27:13;28.80;99.90
1948;DHT22;974;52.400;9.818;2023-06-22T12:29:41;28.50;99.90
1948;DHT22;974;52.400;9.818;2023-06-22T12:32:07;28.40;99.90
1948;DHT22;974;52.400;9.818;2023-06-22T12:34:32;28.20;99.90
1948;DHT22;974;52.400;9.818;2023-06-22T12:36:58;28.00;99.90
1948;DHT22;974;52.400;9.818;2023-06-22T12:39:25;27.90;99.90
1948;DHT22;974;52.400;9.818;2023-06-22T12:41:51;27.80;99.90
1948;DHT22;974;52.400;9.818;2023-06-22T12:44:17;27.70;99.90
1948;DHT22;974;52.400;9.818;2023-06-22T12:46:42;27.70;99.90
1948;DHT22;974;52.400;9.818;2023-06-22T12:49:08;27.80;99.90
1948;DHT22;974;52.400;9.818;2023-06-22T12:51:33;27.80;99.90
1948;DHT22;974;52.400;9.818;2023-06-22T12:53:59;27.70;99.90
1948;DHT22;974;52.400;9.818;2023-06-22T12:56:25;27.70;99.90
1948;DHT22;974;52.400;9.818;2023-06-22T12:58:50;27.70;99.90
1948;DHT22;974;52.400;9.818;2023-06-22T13:01:15;27.60;99.90
1948;DHT22;974;52.400;9.818;2023-06-22T13:03:43;27.50;99.90
1948;DHT22;974;52.400;9.818;2023-06-22T13:06:08;27.40;99.90
1948;DHT22;974;52.400;9.818;2023-06-22T13:08:34;27.30;99.90
1948;DHT22;974;52.400;9.818;2023-06-22T13:10:59;27.30;99.90
1948;DHT22;974;52.400;9.818;2023-06-22T13:13:25;27.20;99.90
1948;DHT22;974;52.400;9.818;2023-06-22T13:15:52;27.10;99.90
1948;DHT22;974;52.400;9.818;2023-06-22T13:18:19;27.10;99.90
1948;DHT22;974;52.400;9.818;2023-06-22T13:20:44;27.00;99.90
1948;DHT22;974;52.400;9.818;2023-06-22T13:23:11;26.90;99.90
1948;DHT22;974;52.400;9.818;2023-06-22T13:25:36;26.90;99.90
1948;DHT22;974;52.400;9.818;2023-06-22T13:28:02;26.60;99.90
1948;DHT22;974;52.400;9.818;2023-06-22T13:30:27;26.50;99.90
1948;DHT22;974;52.400;9.818;2023-06-22T13:32:53;26.30;99.90
1948;DHT22;974;52.400;9.818;2023-06-22T13:35:18;26.10;99.90
1948;DHT22;974;52.400;9.818;2023-06-22T13:37:44;26.00;99.90
1948;DHT22;974;52.400;9.818;2023-06-22T13:40:09;25.80;99.90
1948;DHT22;974;52.400;9.818;2023-06-22T13:42:35;25.80;99.90
1948;DHT22;974;52.400;9.818;2023-06-22T13:45:01;25.70;99.90
1948;DHT22;974;52.400;9.818;2023-06-22T13:47:27;25.60;99.90
1948;DHT22;974;52.400;9.818;2023-06-22T13:49:52;25.60;99.90
1948;DHT22;974;52.400;9.818;2023-06-22T13:52:18;25.30;99.90
1948;DHT22;974;52.400;9.818;2023-06-22T13:54:43;25.20;99.90
1948;DHT22;974;52.400;9.818;2023-06-22T13:57:08;25.10;99.90
1948;DHT22;974;52.400;9.818;2023-06-22T13:59:34;25.10;99.90
1948;DHT22;974;52.400;9.818;2023-06-22T14:02:00;24.90;99.90
1948;DHT22;974;52.400;9.818;2023-06-22T14:04:25;24.80;99.90
1948;DHT22;974;52.400;9.818;2023-06-22T14:06:51;24.80;99.90
1948;DHT22;974;52.400;9.818;2023-06-22T14:09:16;24.80;99.90
1948;DHT22;974;52.400;9.818;2023-06-22T14:11:42;24.70;99.90
1948;DHT22;974;52.400;9.818;2023-06-22T14:14:07;24.60;99.90
1948;DHT22;974;52.400;9.818;2023-06-22T14:16:33;24.60;99.90
1948;DHT22;974;52.400;9.818;2023-06-22T14:18:58;24.50;99.90
1948;DHT22;974;52.400;9.818;2023-06-22T14:21:25;24.40;99.90
1948;DHT22;974;52.400;9.818;2023-06-22T14:23:50;24.30;99.90
1948;DHT22;974;52.400;9.818;2023-06-22T14:26:16;24.40;99.90
1948;DHT22;974;52.400;9.818;2023-06-22T14:28:48;24.40;99.90
1948;DHT22;974;52.400;9.818;2023-06-22T14:31:18;24.40;99.90
1948;DHT22;974;52.400;9.818;2023-06-22T14:33:46;24.30;99.90
1948;DHT22;974;52.400;9.818;2023-06-22T14:36:12;24.20;99.90
1948;DHT22;974;52.400;9.818;2023-06-22T14:38:38;24.20;99.90
1948;DHT22;974;52.400;9.818;2023-06-22T14:41:04;24.20;99.90
1948;DHT22;974;52.400;9.818;2023-06-22T14:43:30;24.20;99.90
1948;DHT22;974;52.400;9.818;2023-06-22T14:45:55;24.10;99.90
1948;DHT22;974;52.400;9.818;2023-06-22T14:48:21;24.10;99.90
1948;DHT22;974;52.400;9.818;2023-06-22T14:50:46;24.00;99.90
1948;DHT22;974;52.400;9.818;2023-06-22T14:53:12;24.00;99.90
1948;DHT22;974;52.400;9.818;2023-06-22T14:55:37;23.90;99.90
1948;DHT22;974;52.400;9.818;2023-06-22T14:58:03;23.80;99.90
1948;DHT22;974;52.400;9.818;2023-06-22T15:00:28;23.70;99.90
1948;DHT22;974;52.400;9.818;2023-06-22T15:02:54;23.70;99.90
1948;DHT22;974;52.400;9.818;2023-06-22T15:05:19;23.70;99.90
1948;DHT22;974;52.400;9.818;2023-06-22T15:07:45;23.60;99.90
1948;DHT22;974;52.400;9.818;2023-06-22T15:10:10;23.60;99.90
1948;DHT22;974;52.400;9.818;2023-06-22T15:12:36;23.60;99.90
1948;DHT22;974;52.400;9.818;2023-06-22T15:15:01;23.60;99.90
1948;DHT22;974;52.400;9.818;2023-06-22T15:17:27;23.50;99.90
1948;DHT22;974;52.400;9.818;2023-06-22T15:19:57;23.60;99.90
1948;DHT22;974;52.400;9.818;2023-06-22T15:22:22;23.60;99.90
1948;DHT22;974;52.400;9.818;2023-06-22T15:24:48;23.60;99.90
1948;DHT22;974;52.400;9.818;2023-06-22T15:27:13;23.50;99.90
1948;DHT22;974;52.400;9.818;2023-06-22T15:29:39;23.50;99.90
1948;DHT22;974;52.400;9.818;2023-06-22T15:32:06;23.40;99.90
1948;DHT22;974;52.400;9.818;2023-06-22T15:34:32;23.30;99.90
1948;DHT22;974;52.400;9.818;2023-06-22T15:37:01;23.20;99.90
1948;DHT22;974;52.400;9.818;2023-06-22T15:39:26;23.10;99.90
1948;DHT22;974;52.400;9.818;2023-06-22T15:41:53;22.90;99.90
1948;DHT22;974;52.400;9.818;2023-06-22T15:44:21;22.60;99.90
1948;DHT22;974;52.400;9.818;2023-06-22T15:46:47;22.30;99.90
1948;DHT22;974;52.400;9.818;2023-06-22T15:49:14;22.00;99.90
1948;DHT22;974;52.400;9.818;2023-06-22T15:51:40;21.90;99.90
1948;DHT22;974;52.400;9.818;2023-06-22T15:54:05;21.70;99.90
1948;DHT22;974;52.400;9.818;2023-06-22T15:56:31;21.60;99.90
1948;DHT22;974;52.400;9.818;2023-06-22T15:58:56;21.50;99.90
1948;DHT22;974;52.400;9.818;2023-06-22T16:01:22;21.30;99.90
1948;DHT22;974;52.400;9.818;2023-06-22T16:03:51;21.30;99.90
1948;DHT22;974;52.400;9.818;2023-06-22T16:06:16;21.30;99.90
1948;DHT22;974;52.400;9.818;2023-06-22T16:08:42;21.30;99.90
1948;DHT22;974;52.400;9.818;2023-06-22T16:11:07;21.20;99.90
1948;DHT22;974;52.400;9.818;2023-06-22T16:13:33;21.10;99.90
1948;DHT22;974;52.400;9.818;2023-06-22T16:15:59;21.00;99.90